Time;durP1;ratioP1;P1;durP2;ratioP2;P2;SDS_P1;SDS_P2;PMS_P1;PMS_P2;Temp;Humidity;BMP_temperature;BMP_pressure;BME280_temperature;BME280_humidity;BME280_pressure;Samples;Min_cycle;Max_cycle;Signal;HPM_P1;HPM_P2
2022/02/04 00:07:12;;;;;;;;;;;4.90;99.90;;;;;;5112821;28;19964;-53
2022/02/04 00:20:37;;;;;;;;;;;4.50;99.90;;;;;;5104011;28;19927;-53
2022/02/04 00:23:16;;;;;;;;;;;4.40;99.90;;;;;;5113168;28;19923;-53
2022/02/04 00:25:57;;;;;;;;;;;4.10;99.90;;;;;;5112998;28;19930;-54
2022/02/04 00:28:36;;;;;;;;;;;4.10;99.90;;;;;;5113146;28;19937;-53
2022/02/04 00:31:18;;;;;;;;;;;3.90;99.90;;;;;;5097783;28;20420;-53
2022/02/04 00:33:48;;;;;;;;;;;3.80;99.90;;;;;;5092761;28;20405;-54
2022/02/04 00:36:20;;;;;;;;;;;3.80;99.90;;;;;;5092597;28;19925;-53
2022/02/04 00:38:49;;;;;;;;;;;3.70;99.90;;;;;;5092716;28;19925;-54
2022/02/04 00:41:19;;;;;;;;;;;3.60;99.90;;;;;;5108712;28;19927;-54
2022/02/04 00:43:48;;;;;;;;;;;3.50;99.90;;;;;;5092509;28;20382;-53
2022/02/04 00:46:20;;;;;;;;;;;3.40;99.90;;;;;;5092923;28;19923;-54
2022/02/04 00:48:54;;;;;;;;;;;3.30;99.90;;;;;;5092836;28;20015;-53
2022/02/04 00:51:27;;;;;;;;;;;3.30;99.90;;;;;;5109449;28;19970;-53
2022/02/04 00:54:04;;;;;;;;;;;3.30;99.90;;;;;;5111501;28;19931;-53
2022/02/04 00:56:37;;;;;;;;;;;3.30;99.90;;;;;;5107176;28;20454;-53
2022/02/04 01:26:30;;;;;;;;;;;3.80;99.90;;;;;;5117768;28;19926;-53
2022/02/04 01:28:56;;;;;;;;;;;3.80;99.90;;;;;;5103579;28;20389;-53
2022/02/04 01:31:24;;;;;;;;;;;3.60;99.90;;;;;;5103241;28;19924;-53
2022/02/04 01:33:51;;;;;;;;;;;3.50;99.90;;;;;;5110367;28;20328;-53
2022/02/04 01:36:18;;;;;;;;;;;3.50;99.90;;;;;;5119389;28;20014;-53
2022/02/04 01:38:45;;;;;;;;;;;3.60;99.90;;;;;;5120832;28;19924;-53
2022/02/04 01:41:12;;;;;;;;;;;3.50;99.90;;;;;;5119026;28;19924;-53
2022/02/04 01:43:41;;;;;;;;;;;3.30;99.90;;;;;;5107108;28;19935;-53
2022/02/04 01:46:09;;;;;;;;;;;3.20;99.90;;;;;;5110931;28;19923;-53
2022/02/04 01:48:36;;;;;;;;;;;3.00;99.90;;;;;;5120502;28;19924;-52
2022/02/04 01:51:04;;;;;;;;;;;2.90;99.90;;;;;;5127412;28;19924;-53
2022/02/04 01:53:31;;;;;;;;;;;2.70;99.90;;;;;;5128976;28;19946;-53
2022/02/04 01:55:58;;;;;;;;;;;2.70;99.90;;;;;;5123272;28;19924;-53
2022/02/04 01:58:26;;;;;;;;;;;2.70;99.90;;;;;;5109556;28;19924;-53
2022/02/04 02:00:54;;;;;;;;;;;2.90;99.90;;;;;;5106446;28;19924;-53
2022/02/04 02:03:21;;;;;;;;;;;2.70;99.90;;;;;;5104083;28;19924;-53
2022/02/04 02:05:48;;;;;;;;;;;2.50;99.90;;;;;;5105082;28;19924;-53
2022/02/04 02:08:20;;;;;;;;;;;2.40;99.90;;;;;;5098916;28;19928;-53
2022/02/04 02:10:48;;;;;;;;;;;2.30;99.90;;;;;;5098265;28;19964;-53
2022/02/04 02:13:23;;;;;;;;;;;2.40;99.90;;;;;;5099011;28;19926;-53
2022/02/04 02:15:59;;;;;;;;;;;2.30;99.90;;;;;;5097430;28;19928;-53
2022/02/04 02:46:21;;;;;;;;;;;1.60;99.90;;;;;;5118234;28;20007;-55
2022/02/04 02:49:22;;;;;;;;;;;1.60;99.90;;;;;;5125880;28;19924;-53
2022/02/04 02:52:03;;;;;;;;;;;1.50;99.90;;;;;;5128474;28;19928;-53
2022/02/04 03:00:08;;;;;;;;;;;1.60;99.90;;;;;;5094211;28;19926;-53
2022/02/04 03:02:34;;;;;;;;;;;1.50;99.90;;;;;;5094617;28;19924;-53
2022/02/04 03:05:01;;;;;;;;;;;1.40;99.90;;;;;;5094862;28;19924;-53
2022/02/04 03:07:28;;;;;;;;;;;1.50;99.90;;;;;;5094438;28;19924;-53
2022/02/04 03:09:56;;;;;;;;;;;1.60;99.90;;;;;;5093977;28;20306;-53
2022/02/04 03:12:23;;;;;;;;;;;1.80;99.90;;;;;;5108762;28;19950;-53
2022/02/04 03:14:52;;;;;;;;;;;1.80;99.90;;;;;;5094807;28;19928;-53
2022/02/04 03:17:19;;;;;;;;;;;1.80;99.90;;;;;;5093929;28;19936;-53
2022/02/04 03:19:50;;;;;;;;;;;1.90;99.90;;;;;;5092939;28;19925;-53
2022/02/04 03:22:16;;;;;;;;;;;1.90;99.90;;;;;;5093724;28;20400;-52
2022/02/04 03:24:49;;;;;;;;;;;1.90;99.90;;;;;;5098788;28;20419;-53
2022/02/04 03:27:18;;;;;;;;;;;2.00;99.90;;;;;;5094786;28;19927;-52
2022/02/04 03:30:01;;;;;;;;;;;2.20;99.90;;;;;;5093713;28;20313;-53
2022/02/04 03:32:28;;;;;;;;;;;2.30;99.90;;;;;;5093858;28;20409;-53
2022/02/04 03:34:54;;;;;;;;;;;2.10;99.90;;;;;;5095962;28;19924;-52
2022/02/04 03:37:21;;;;;;;;;;;2.20;99.90;;;;;;5107490;28;19924;-53
2022/02/04 03:39:48;;;;;;;;;;;2.20;99.90;;;;;;5109799;28;19924;-52
2022/02/04 03:42:15;;;;;;;;;;;2.20;99.90;;;;;;5106618;28;19976;-52
2022/02/04 03:44:43;;;;;;;;;;;2.10;99.90;;;;;;5111446;28;19928;-52
2022/02/04 03:47:10;;;;;;;;;;;2.20;99.90;;;;;;5112542;28;20381;-52
2022/02/04 03:49:37;;;;;;;;;;;2.10;99.90;;;;;;5111938;28;20385;-53
2022/02/04 03:52:04;;;;;;;;;;;2.10;99.90;;;;;;5112262;28;19969;-52
2022/02/04 03:54:31;;;;;;;;;;;2.20;99.90;;;;;;5112913;28;19923;-52
2022/02/04 03:56:57;;;;;;;;;;;2.20;99.90;;;;;;5111939;28;19923;-52
2022/02/04 03:59:26;;;;;;;;;;;2.00;99.90;;;;;;5112264;28;19923;-53
2022/02/04 04:01:54;;;;;;;;;;;1.80;99.90;;;;;;5112986;28;19924;-52
2022/02/04 04:04:21;;;;;;;;;;;1.60;99.90;;;;;;5112842;28;19993;-52
2022/02/04 04:06:49;;;;;;;;;;;1.70;99.90;;;;;;5112341;28;19924;-52
2022/02/04 04:09:15;;;;;;;;;;;1.60;99.90;;;;;;5112287;28;19924;-52
2022/02/04 04:11:46;;;;;;;;;;;1.40;99.90;;;;;;5112307;28;19928;-52
2022/02/04 04:14:15;;;;;;;;;;;1.60;99.90;;;;;;5112183;28;19927;-53
2022/02/04 04:16:42;;;;;;;;;;;1.50;99.90;;;;;;5111320;28;20022;-51
2022/02/04 04:19:10;;;;;;;;;;;1.60;99.90;;;;;;5112309;28;20022;-52
2022/02/04 04:21:37;;;;;;;;;;;1.60;99.90;;;;;;5112657;28;19924;-52
2022/02/04 04:24:04;;;;;;;;;;;1.70;99.90;;;;;;5112790;28;20010;-52
2022/02/04 04:26:30;;;;;;;;;;;1.70;99.90;;;;;;5112451;28;19924;-52
2022/02/04 04:28:57;;;;;;;;;;;2.00;99.90;;;;;;5112108;28;19927;-51
2022/02/04 04:31:24;;;;;;;;;;;2.00;99.90;;;;;;5112501;28;19923;-52
2022/02/04 04:33:51;;;;;;;;;;;2.10;99.90;;;;;;5116759;28;19931;-52
2022/02/04 04:36:20;;;;;;;;;;;2.00;99.90;;;;;;5113245;28;19924;-52
2022/02/04 04:38:52;;;;;;;;;;;1.90;99.90;;;;;;5115206;28;19923;-52
2022/02/04 04:41:28;;;;;;;;;;;1.70;99.90;;;;;;5113933;28;19977;-52
2022/02/04 04:44:33;;;;;;;;;;;1.70;99.90;;;;;;5112603;28;19931;-52
2022/02/04 05:28:35;;;;;;;;;;;1.50;99.90;;;;;;5115195;28;19992;-53
2022/02/04 05:31:02;;;;;;;;;;;1.40;99.90;;;;;;5115176;28;19924;-52
2022/02/04 05:33:29;;;;;;;;;;;1.40;99.90;;;;;;5111600;28;20287;-52
2022/02/04 05:35:56;;;;;;;;;;;1.40;99.90;;;;;;5115013;27;19992;-53
2022/02/04 05:38:23;;;;;;;;;;;1.50;99.90;;;;;;5114283;28;19939;-53
2022/02/04 05:40:52;;;;;;;;;;;1.50;99.90;;;;;;5114880;28;19930;-53
2022/02/04 05:43:22;;;;;;;;;;;1.50;99.90;;;;;;5111537;28;20335;-52
2022/02/04 05:45:58;;;;;;;;;;;1.50;99.90;;;;;;5114909;28;19924;-53
2022/02/04 05:48:26;;;;;;;;;;;1.60;99.90;;;;;;5112317;28;19923;-52
2022/02/04 05:51:06;;;;;;;;;;;1.60;99.90;;;;;;5114831;28;19924;-52
2022/02/04 05:53:39;;;;;;;;;;;1.60;99.90;;;;;;5111743;28;19970;-52
2022/02/04 05:56:14;;;;;;;;;;;1.50;99.90;;;;;;5114879;28;19923;-52
2022/02/04 05:58:51;;;;;;;;;;;1.50;99.90;;;;;;5111593;28;19958;-53
2022/02/04 06:01:37;;;;;;;;;;;1.50;99.90;;;;;;5121897;22;19950;-51
2022/02/04 06:04:18;;;;;;;;;;;1.50;99.90;;;;;;5091261;28;20431;-50
2022/02/04 06:07:04;;;;;;;;;;;1.60;99.90;;;;;;5090911;28;19963;-52
2022/02/04 06:23:39;;;;;;;;;;;1.30;99.90;;;;;;5070659;28;19947;-52
2022/02/04 06:26:06;;;;;;;;;;;1.30;99.90;;;;;;5071527;28;19932;-52
2022/02/04 06:28:35;;;;;;;;;;;1.50;99.90;;;;;;5072153;28;20009;-50
2022/02/04 06:31:02;;;;;;;;;;;1.50;99.90;;;;;;5072004;28;19936;-50
2022/02/04 06:33:29;;;;;;;;;;;1.60;99.90;;;;;;5071552;28;19994;-50
2022/02/04 06:35:55;;;;;;;;;;;1.60;99.90;;;;;;5072178;28;19977;-52
2022/02/04 06:38:22;;;;;;;;;;;1.70;99.90;;;;;;5071127;28;20271;-51
2022/02/04 06:40:49;;;;;;;;;;;1.70;99.90;;;;;;5071576;28;19925;-49
2022/02/04 06:43:16;;;;;;;;;;;1.80;99.90;;;;;;5071936;28;19993;-52
2022/02/04 06:45:44;;;;;;;;;;;1.90;99.90;;;;;;5071817;28;19974;-51
2022/02/04 06:48:10;;;;;;;;;;;1.90;99.90;;;;;;5071700;28;19924;-49
2022/02/04 06:50:37;;;;;;;;;;;2.00;99.90;;;;;;5071726;28;19973;-53
2022/02/04 06:53:05;;;;;;;;;;;2.10;99.90;;;;;;5069425;28;19924;-50
2022/02/04 06:55:31;;;;;;;;;;;2.30;99.90;;;;;;5067726;28;20374;-53
2022/02/04 06:57:58;;;;;;;;;;;2.30;99.90;;;;;;5067567;28;19928;-51
2022/02/04 07:00:27;;;;;;;;;;;2.30;99.90;;;;;;5071453;28;19987;-50
2022/02/04 07:02:56;;;;;;;;;;;2.40;99.90;;;;;;5071900;28;20258;-50
2022/02/04 07:05:24;;;;;;;;;;;2.60;99.90;;;;;;5071443;28;20294;-50
2022/02/04 07:07:59;;;;;;;;;;;2.80;99.90;;;;;;5071383;28;19925;-51
2022/02/04 07:10:33;;;;;;;;;;;2.80;99.90;;;;;;5069529;28;19928;-51
2022/02/04 07:13:09;;;;;;;;;;;2.80;99.90;;;;;;5070258;28;19936;-50
2022/02/04 07:15:51;;;;;;;;;;;3.00;99.90;;;;;;5071627;28;19924;-50
2022/02/04 07:21:09;;;;;;;;;;;3.30;99.90;;;;;;5025350;28;19970;-49
2022/02/04 07:23:37;;;;;;;;;;;3.40;99.90;;;;;;5071262;28;19978;-53
2022/02/04 07:26:04;;;;;;;;;;;3.50;99.90;;;;;;5070925;28;19933;-51
2022/02/04 07:28:31;;;;;;;;;;;3.60;99.90;;;;;;5070977;28;19924;-51
2022/02/04 07:30:59;;;;;;;;;;;3.80;99.90;;;;;;5070193;28;19928;-49
2022/02/04 07:33:41;;;;;;;;;;;3.90;99.90;;;;;;5067042;28;19932;-50
2022/02/04 07:41:33;;;;;;;;;;;4.50;99.90;;;;;;5071517;28;20451;-51
2022/02/04 07:43:59;;;;;;;;;;;4.70;99.90;;;;;;5066912;28;19970;-51
2022/02/04 07:46:26;;;;;;;;;;;4.60;99.90;;;;;;5068107;28;19925;-51
2022/02/04 07:48:55;;;;;;;;;;;4.60;99.90;;;;;;5071402;28;19928;-51
2022/02/04 07:51:22;;;;;;;;;;;4.70;99.90;;;;;;5071147;28;19925;-50
2022/02/04 07:53:48;;;;;;;;;;;5.00;99.90;;;;;;5071384;28;19942;-49
2022/02/04 07:56:20;;;;;;;;;;;5.20;99.90;;;;;;5071388;28;19970;-51
2022/02/04 07:58:54;;;;;;;;;;;5.40;99.90;;;;;;5064575;28;19967;-50
2022/02/04 08:01:25;;;;;;;;;;;5.50;99.90;;;;;;5066373;28;19959;-50
2022/02/04 08:03:58;;;;;;;;;;;5.40;99.90;;;;;;5069974;28;20306;-50
2022/02/04 08:06:27;;;;;;;;;;;5.60;99.90;;;;;;5070688;28;19972;-51
2022/02/04 08:08:59;;;;;;;;;;;5.80;99.90;;;;;;5075225;28;19978;-50
2022/02/04 08:11:44;;;;;;;;;;;6.20;99.90;;;;;;5074684;28;19932;-52
2022/02/04 08:14:16;;;;;;;;;;;6.70;99.90;;;;;;5074620;28;19924;-51
2022/02/04 08:17:18;;;;;;;;;;;7.00;99.90;;;;;;5073225;28;21731;-54
2022/02/04 08:25:29;;;;;;;;;;;8.70;99.90;;;;;;5075103;28;20016;-52
2022/02/04 08:47:49;;;;;;;;;;;10.80;99.90;;;;;;5073257;28;19931;-51
2022/02/04 08:53:05;;;;;;;;;;;9.60;99.90;;;;;;5073965;28;19920;-51
2022/02/04 08:55:42;;;;;;;;;;;8.90;99.90;;;;;;5074698;28;19971;-52
2022/02/04 08:58:24;;;;;;;;;;;8.50;99.90;;;;;;5074107;28;20007;-51
2022/02/04 09:00:59;;;;;;;;;;;8.40;99.90;;;;;;5074032;28;20016;-52
2022/02/04 09:03:29;;;;;;;;;;;8.30;99.90;;;;;;5074312;28;19963;-51
2022/02/04 09:06:07;;;;;;;;;;;8.00;99.90;;;;;;5074591;28;19974;-51
2022/02/04 09:08:35;;;;;;;;;;;7.90;99.90;;;;;;5073925;28;19962;-52
2022/02/04 09:11:10;;;;;;;;;;;7.90;99.90;;;;;;5074491;28;19931;-53
2022/02/04 09:19:11;;;;;;;;;;;8.70;99.90;;;;;;5073304;28;19928;-51
2022/02/04 09:22:05;;;;;;;;;;;9.00;99.90;;;;;;5074068;28;20015;-51
2022/02/04 09:24:32;;;;;;;;;;;9.60;99.90;;;;;;5074119;28;19931;-51
2022/02/04 09:27:00;;;;;;;;;;;9.80;99.90;;;;;;5073738;28;19929;-51
2022/02/04 09:29:27;;;;;;;;;;;9.70;99.90;;;;;;5073817;28;19932;-51
2022/02/04 09:31:54;;;;;;;;;;;10.40;99.90;;;;;;5073816;28;19924;-50
2022/02/04 09:34:20;;;;;;;;;;;10.30;99.90;;;;;;5073737;28;20414;-53
2022/02/04 09:36:47;;;;;;;;;;;10.40;99.90;;;;;;5073966;28;19985;-51
2022/02/04 09:39:14;;;;;;;;;;;10.50;99.90;;;;;;5073815;28;19924;-52
2022/02/04 09:41:42;;;;;;;;;;;11.90;99.90;;;;;;5073591;28;20307;-53
2022/02/04 09:44:11;;;;;;;;;;;13.50;99.90;;;;;;5072542;28;19928;-51
2022/02/04 09:46:37;;;;;;;;;;;14.50;99.90;;;;;;5072821;28;19924;-53
2022/02/04 09:49:07;;;;;;;;;;;14.10;99.90;;;;;;5072797;28;20332;-52
2022/02/04 10:04:20;;;;;;;;;;;14.60;99.90;;;;;;5073423;28;20416;-51
2022/02/04 10:08:31;;;;;;;;;;;14.40;99.90;;;;;;5072409;28;19920;-52
2022/02/04 10:14:07;;;;;;;;;;;11.10;99.90;;;;;;5050115;28;20028;-52
2022/02/04 10:17:04;;;;;;;;;;;12.30;99.90;;;;;;5072894;28;19925;-51
2022/02/04 10:19:30;;;;;;;;;;;14.20;99.90;;;;;;5070309;28;19931;-51
2022/02/04 10:21:58;;;;;;;;;;;15.50;99.90;;;;;;5072575;28;20023;-53
2022/02/04 10:24:25;;;;;;;;;;;16.40;99.90;;;;;;5072379;28;20024;-52
2022/02/04 10:27:08;;;;;;;;;;;16.40;99.90;;;;;;5072519;28;20094;-51
2022/02/04 10:29:35;;;;;;;;;;;16.30;99.90;;;;;;5071506;28;19981;-51
2022/02/04 10:32:03;;;;;;;;;;;16.30;99.90;;;;;;5071890;28;20382;-53
2022/02/04 10:34:31;;;;;;;;;;;16.40;99.90;;;;;;5071884;28;19966;-52
2022/02/04 10:37:01;;;;;;;;;;;17.20;99.90;;;;;;5072280;28;19978;-54
2022/02/04 10:39:42;;;;;;;;;;;17.30;99.90;;;;;;5072257;28;19936;-53
2022/02/04 10:42:17;;;;;;;;;;;16.70;99.90;;;;;;5072363;28;19924;-51
2022/02/04 10:45:00;;;;;;;;;;;16.40;99.90;;;;;;5071395;28;19924;-51
2022/02/04 10:47:34;;;;;;;;;;;17.00;99.90;;;;;;5072209;28;19924;-51
2022/02/04 10:50:10;;;;;;;;;;;16.80;99.90;;;;;;5072187;28;19960;-51
2022/02/04 10:52:59;;;;;;;;;;;17.10;99.90;;;;;;5072437;28;19982;-52
2022/02/04 10:56:07;;;;;;;;;;;16.50;99.90;;;;;;5072255;28;19954;-52
2022/02/04 10:58:58;;;;;;;;;;;15.70;99.90;;;;;;5072681;28;19939;-51
2022/02/04 11:01:34;;;;;;;;;;;14.40;99.90;;;;;;5071186;28;19947;-52
2022/02/04 11:04:05;;;;;;;;;;;13.00;99.90;;;;;;5071617;28;19928;-54
2022/02/04 11:06:48;;;;;;;;;;;12.00;99.90;;;;;;5071644;28;20031;-50
2022/02/04 11:09:26;;;;;;;;;;;11.30;99.90;;;;;;5071652;28;19924;-50
2022/02/04 11:12:09;;;;;;;;;;;10.90;99.90;;;;;;5071524;28;19971;-53
2022/02/04 11:31:29;;;;;;;;;;;10.40;99.90;;;;;;5070524;28;19963;-49
2022/02/04 11:34:15;;;;;;;;;;;10.30;99.90;;;;;;5070201;28;19925;-54
2022/02/04 11:48:58;;;;;;;;;;;10.30;99.90;;;;;;5070492;28;19919;-49
2022/02/04 11:51:40;;;;;;;;;;;10.40;99.90;;;;;;5069558;28;19973;-49
2022/02/04 11:54:31;;;;;;;;;;;10.40;99.90;;;;;;5067970;28;20487;-51
2022/02/04 11:57:21;;;;;;;;;;;10.50;99.90;;;;;;5060809;28;19924;-50
2022/02/04 11:59:53;;;;;;;;;;;10.50;99.90;;;;;;5069641;28;19931;-50
2022/02/04 12:02:34;;;;;;;;;;;10.80;99.90;;;;;;5070121;28;20333;-50
2022/02/04 12:05:19;;;;;;;;;;;10.60;99.90;;;;;;5070033;28;19930;-50
2022/02/04 12:07:47;;;;;;;;;;;10.40;99.90;;;;;;5069589;28;19932;-51
2022/02/04 12:10:19;;;;;;;;;;;10.40;99.90;;;;;;5076733;22;19924;-52
2022/02/04 12:13:08;;;;;;;;;;;10.70;99.90;;;;;;5052314;28;20015;-52
2022/02/04 12:15:36;;;;;;;;;;;10.90;99.90;;;;;;5044509;28;19924;-53
2022/02/04 12:18:04;;;;;;;;;;;11.00;99.90;;;;;;5050041;28;19940;-54
2022/02/04 12:20:50;;;;;;;;;;;11.20;99.90;;;;;;5051314;28;19929;-53
2022/02/04 12:23:32;;;;;;;;;;;11.40;99.90;;;;;;5051501;28;20127;-54
2022/02/04 12:26:00;;;;;;;;;;;11.30;99.90;;;;;;5042842;28;19925;-53
2022/02/04 12:28:37;;;;;;;;;;;11.40;99.90;;;;;;5030644;28;19936;-52
2022/02/04 12:31:07;;;;;;;;;;;11.30;99.90;;;;;;5044474;28;19925;-53
2022/02/04 12:33:39;;;;;;;;;;;11.50;99.90;;;;;;5052355;28;19924;-52
2022/02/04 12:36:06;;;;;;;;;;;11.30;99.90;;;;;;5052654;28;19925;-52
2022/02/04 12:38:33;;;;;;;;;;;11.10;99.90;;;;;;5052619;28;19971;-52
2022/02/04 12:41:00;;;;;;;;;;;10.80;99.90;;;;;;5052044;28;19928;-53
2022/02/04 12:43:26;;;;;;;;;;;10.10;99.90;;;;;;5050286;28;20295;-53
2022/02/04 12:45:55;;;;;;;;;;;9.90;99.90;;;;;;5013401;28;19926;-53
2022/02/04 12:48:22;;;;;;;;;;;10.00;99.90;;;;;;5039935;28;19929;-53
2022/02/04 12:50:52;;;;;;;;;;;10.10;99.90;;;;;;5036208;28;19968;-53
2022/02/04 12:53:26;;;;;;;;;;;9.50;99.90;;;;;;5013996;28;19925;-53
2022/02/04 12:56:15;;;;;;;;;;;9.70;99.90;;;;;;5016442;28;19926;-52
2022/02/04 12:58:54;;;;;;;;;;;9.60;99.90;;;;;;5016058;28;19929;-53
2022/02/04 13:09:51;;;;;;;;;;;9.50;99.90;;;;;;5016893;28;19960;-54
2022/02/04 13:12:19;;;;;;;;;;;9.30;99.90;;;;;;5026964;28;19929;-54
2022/02/04 13:14:46;;;;;;;;;;;9.20;99.90;;;;;;5024545;28;20016;-54
2022/02/04 13:17:28;;;;;;;;;;;9.30;99.90;;;;;;5034653;28;19987;-54
2022/02/04 13:19:55;;;;;;;;;;;9.20;99.90;;;;;;5035507;28;20014;-54
2022/02/04 13:22:21;;;;;;;;;;;9.20;99.90;;;;;;5034686;28;19925;-54
2022/02/04 13:25:03;;;;;;;;;;;9.30;99.90;;;;;;5033845;28;19932;-54
2022/02/04 13:27:30;;;;;;;;;;;9.40;99.90;;;;;;5022268;28;19932;-54
2022/02/04 13:29:57;;;;;;;;;;;9.60;99.90;;;;;;5016025;28;19975;-54
2022/02/04 13:32:25;;;;;;;;;;;9.20;99.90;;;;;;5020364;28;19991;-53
2022/02/04 13:34:53;;;;;;;;;;;9.00;99.90;;;;;;5024130;28;19925;-54
2022/02/04 13:37:27;;;;;;;;;;;9.20;99.90;;;;;;5032593;28;19948;-53
2022/02/04 13:39:59;;;;;;;;;;;9.30;99.90;;;;;;5024611;28;19925;-53
2022/02/04 13:42:36;;;;;;;;;;;9.20;99.90;;;;;;5029846;28;20024;-53
2022/02/04 13:45:10;;;;;;;;;;;9.10;99.90;;;;;;5034894;28;20356;-52
2022/02/04 13:47:46;;;;;;;;;;;8.80;99.90;;;;;;5032270;28;19936;-53
2022/02/04 13:50:24;;;;;;;;;;;8.60;99.90;;;;;;5030024;28;19933;-52
2022/02/04 13:55:40;;;;;;;;;;;8.90;99.90;;;;;;5029788;28;19921;-53
2022/02/04 13:58:19;;;;;;;;;;;8.90;99.90;;;;;;5034075;28;19925;-52
2022/02/04 14:00:54;;;;;;;;;;;8.90;99.90;;;;;;5046657;28;19928;-53
2022/02/04 14:03:24;;;;;;;;;;;8.90;99.90;;;;;;5034312;28;20023;-53
2022/02/04 14:05:58;;;;;;;;;;;8.90;99.90;;;;;;5035195;28;19926;-52
2022/02/04 14:08:30;;;;;;;;;;;8.90;99.90;;;;;;5053987;28;20012;-53
2022/02/04 14:10:59;;;;;;;;;;;9.00;99.90;;;;;;5038515;28;19924;-53
2022/02/04 14:13:27;;;;;;;;;;;8.90;99.90;;;;;;5035174;28;20387;-48
2022/02/04 14:15:57;;;;;;;;;;;8.90;99.90;;;;;;5034728;28;19925;-48
2022/02/04 14:18:26;;;;;;;;;;;9.00;99.90;;;;;;5034235;28;19925;-49
2022/02/04 14:20:52;;;;;;;;;;;8.90;99.90;;;;;;5035019;28;19925;-49
2022/02/04 14:23:19;;;;;;;;;;;8.80;99.90;;;;;;5034057;28;19941;-49
2022/02/04 14:25:49;;;;;;;;;;;8.80;99.90;;;;;;5034820;28;19925;-49
2022/02/04 14:28:21;;;;;;;;;;;8.90;99.90;;;;;;5034215;28;19925;-49
2022/02/04 14:30:57;;;;;;;;;;;8.80;99.90;;;;;;5034235;28;19933;-49
2022/02/04 14:34:03;;;;;;;;;;;8.90;99.90;;;;;;5042311;28;19987;-49
2022/02/04 14:36:19;;;;;;;;;;;8.90;99.90;;;;;;5052992;28;19925;-49
2022/02/04 14:50:05;;;;;;;;;;;8.70;99.90;;;;;;5041332;28;19952;-49
2022/02/04 14:52:42;;;;;;;;;;;8.70;99.90;;;;;;5032738;28;19925;-48
2022/02/04 15:00:43;;;;;;;;;;;8.50;99.90;;;;;;5032897;28;19928;-49
2022/02/04 15:03:27;;;;;;;;;;;8.40;99.90;;;;;;5051901;28;19932;-48
2022/02/04 15:06:05;;;;;;;;;;;8.30;99.90;;;;;;5027499;28;20415;-49
2022/02/04 15:08:36;;;;;;;;;;;8.30;99.90;;;;;;5029680;28;19925;-49
2022/02/04 15:11:14;;;;;;;;;;;8.10;99.90;;;;;;5032659;28;19925;-48
2022/02/04 15:13:41;;;;;;;;;;;8.10;99.90;;;;;;5032871;28;19925;-49
2022/02/04 15:16:08;;;;;;;;;;;7.90;99.90;;;;;;5028878;28;20028;-48
2022/02/04 15:18:35;;;;;;;;;;;7.90;99.90;;;;;;5033044;28;19940;-49
2022/02/04 15:21:03;;;;;;;;;;;7.80;99.90;;;;;;5036673;28;19979;-48
2022/02/04 15:23:33;;;;;;;;;;;7.80;99.90;;;;;;5033053;28;19925;-49
2022/02/04 15:26:02;;;;;;;;;;;7.80;99.90;;;;;;5033688;28;19967;-49
2022/02/04 15:28:43;;;;;;;;;;;7.80;99.90;;;;;;5034557;28;19925;-49
2022/02/04 15:31:17;;;;;;;;;;;7.70;99.90;;;;;;5014572;28;19929;-49
2022/02/04 15:33:46;;;;;;;;;;;7.70;99.90;;;;;;5013874;28;19977;-49
2022/02/04 15:36:13;;;;;;;;;;;7.70;99.90;;;;;;5013749;28;20430;-48
2022/02/04 15:38:40;;;;;;;;;;;7.50;99.90;;;;;;5013924;28;20315;-48
2022/02/04 15:41:14;;;;;;;;;;;7.50;99.90;;;;;;5013802;28;20307;-49
2022/02/04 15:43:41;;;;;;;;;;;7.50;99.90;;;;;;5017277;28;19932;-48
2022/02/04 15:49:25;;;;;;;;;;;7.30;99.90;;;;;;5013301;28;19928;-48
2022/02/04 15:54:51;;;;;;;;;;;7.00;99.90;;;;;;4975685;28;19945;-48
2022/02/04 16:02:50;;;;;;;;;;;6.90;99.90;;;;;;4999770;28;19933;-48
2022/02/04 16:05:17;;;;;;;;;;;6.80;99.90;;;;;;5033120;28;19925;-49
2022/02/04 16:07:43;;;;;;;;;;;6.70;99.90;;;;;;5033175;28;19940;-48
2022/02/04 16:10:25;;;;;;;;;;;6.60;99.90;;;;;;5027087;28;19983;-49
2022/02/04 16:12:57;;;;;;;;;;;6.50;99.90;;;;;;5013334;28;20383;-48
2022/02/04 16:15:36;;;;;;;;;;;6.40;99.90;;;;;;5025486;28;20056;-49
2022/02/04 16:18:08;;;;;;;;;;;6.50;99.90;;;;;;5017173;28;19971;-48
2022/02/04 16:21:00;;;;;;;;;;;6.60;99.90;;;;;;5033073;28;19925;-48
2022/02/04 16:23:31;;;;;;;;;;;6.60;99.90;;;;;;5032630;28;19932;-48
2022/02/04 16:26:12;;;;;;;;;;;6.60;99.90;;;;;;5033093;28;19932;-48
2022/02/04 16:28:41;;;;;;;;;;;6.50;99.90;;;;;;5036362;28;20371;-48
2022/02/04 16:31:08;;;;;;;;;;;6.30;99.90;;;;;;5036602;28;20425;-49
2022/02/04 16:33:35;;;;;;;;;;;6.30;99.90;;;;;;5026070;28;19933;-48
2022/02/04 16:36:06;;;;;;;;;;;6.40;99.90;;;;;;5015917;28;19932;-48
2022/02/04 16:38:33;;;;;;;;;;;6.30;99.90;;;;;;5024422;28;19937;-49
2022/02/04 16:41:05;;;;;;;;;;;6.30;99.90;;;;;;5026064;28;20447;-49
2022/02/04 16:43:35;;;;;;;;;;;6.20;99.90;;;;;;5016563;28;19925;-50
2022/02/04 16:46:03;;;;;;;;;;;6.10;99.90;;;;;;5033572;28;19925;-49
2022/02/04 16:48:30;;;;;;;;;;;6.30;99.90;;;;;;5019220;28;19929;-50
2022/02/04 16:50:57;;;;;;;;;;;6.50;99.90;;;;;;5016535;28;19925;-49
2022/02/04 16:53:24;;;;;;;;;;;6.40;99.90;;;;;;5030545;28;20357;-49
2022/02/04 16:55:51;;;;;;;;;;;6.50;99.90;;;;;;5033719;28;19925;-48
2022/02/04 16:58:17;;;;;;;;;;;6.40;99.90;;;;;;5035444;28;19925;-48
2022/02/04 17:00:44;;;;;;;;;;;6.40;99.90;;;;;;5024681;28;19984;-48
2022/02/04 17:03:12;;;;;;;;;;;6.40;99.90;;;;;;5018354;28;19933;-49
2022/02/04 17:05:50;;;;;;;;;;;6.40;99.90;;;;;;5017036;28;20363;-49
2022/02/04 17:08:23;;;;;;;;;;;6.40;99.90;;;;;;5019627;28;20680;-50
2022/02/04 17:10:54;;;;;;;;;;;6.30;99.90;;;;;;5035804;28;19964;-49
2022/02/04 17:13:23;;;;;;;;;;;6.50;99.90;;;;;;5035947;28;19935;-50
2022/02/04 17:15:50;;;;;;;;;;;6.60;99.90;;;;;;5035307;28;19925;-50
2022/02/04 17:18:18;;;;;;;;;;;6.70;99.90;;;;;;5034724;28;20634;-50
2022/02/04 17:20:48;;;;;;;;;;;6.60;99.90;;;;;;5032582;28;19929;-47
2022/02/04 17:23:20;;;;;;;;;;;6.70;99.90;;;;;;5039095;28;19940;-49
2022/02/04 17:25:46;;;;;;;;;;;6.70;99.90;;;;;;5054152;28;19925;-49
2022/02/04 17:28:13;;;;;;;;;;;6.80;99.90;;;;;;5053017;28;19925;-49
2022/02/04 17:30:40;;;;;;;;;;;6.80;99.90;;;;;;5053158;28;20387;-49
2022/02/04 17:33:07;;;;;;;;;;;6.90;99.90;;;;;;5053582;28;20445;-49
2022/02/04 17:35:35;;;;;;;;;;;6.90;99.90;;;;;;5045295;28;19986;-51
2022/02/04 17:38:02;;;;;;;;;;;6.90;99.90;;;;;;5035229;28;20441;-48
2022/02/04 17:40:29;;;;;;;;;;;6.90;99.90;;;;;;5035249;28;19925;-48
2022/02/04 17:42:58;;;;;;;;;;;6.90;99.90;;;;;;5035654;28;19925;-47
2022/02/04 17:45:25;;;;;;;;;;;6.90;99.90;;;;;;5035498;28;19932;-48
2022/02/04 17:47:56;;;;;;;;;;;6.80;99.90;;;;;;5030433;28;19932;-49
2022/02/04 17:50:29;;;;;;;;;;;6.80;99.90;;;;;;5035890;28;19925;-49
2022/02/04 17:53:04;;;;;;;;;;;6.70;99.90;;;;;;5022529;28;19934;-49
2022/02/04 17:55:34;;;;;;;;;;;6.70;99.90;;;;;;5027805;28;20119;-49
2022/02/04 17:58:19;;;;;;;;;;;6.70;99.90;;;;;;5023453;28;19930;-49
2022/02/04 18:05:14;;;;;;;;;;;6.80;99.90;;;;;;5034684;28;20456;-49
2022/02/04 18:09:07;;;;;;;;;;;6.80;99.90;;;;;;5035085;28;19975;-48
2022/02/04 18:11:34;;;;;;;;;;;6.80;99.90;;;;;;5034905;28;19929;-49
2022/02/04 18:14:01;;;;;;;;;;;6.70;99.90;;;;;;5040116;28;19929;-48
2022/02/04 18:16:28;;;;;;;;;;;6.80;99.90;;;;;;5053077;28;20349;-49
2022/02/04 18:18:55;;;;;;;;;;;6.70;99.90;;;;;;5052852;28;19925;-48
2022/02/04 18:21:22;;;;;;;;;;;6.70;99.90;;;;;;5045044;28;19929;-49
2022/02/04 18:23:49;;;;;;;;;;;6.60;99.90;;;;;;5034686;28;19960;-49
2022/02/04 18:26:17;;;;;;;;;;;6.50;99.90;;;;;;5034508;28;19932;-49
2022/02/04 18:28:44;;;;;;;;;;;6.60;99.90;;;;;;5030427;28;19925;-48
2022/02/04 18:31:10;;;;;;;;;;;6.70;99.90;;;;;;5033704;28;20732;-48
2022/02/04 18:33:37;;;;;;;;;;;6.70;99.90;;;;;;5034777;28;19925;-48
2022/02/04 18:36:04;;;;;;;;;;;6.90;99.90;;;;;;5034260;28;19932;-48
2022/02/04 18:38:36;;;;;;;;;;;7.00;99.90;;;;;;5027309;28;19929;-48
2022/02/04 18:41:27;;;;;;;;;;;6.90;99.90;;;;;;5049379;28;19929;-48
2022/02/04 18:43:59;;;;;;;;;;;6.90;99.90;;;;;;5053342;28;19925;-48
2022/02/04 18:46:48;;;;;;;;;;;6.90;99.90;;;;;;5072818;22;19937;-47
2022/02/04 18:49:24;;;;;;;;;;;6.80;99.90;;;;;;5049194;28;20382;-47
2022/02/04 18:52:00;;;;;;;;;;;6.60;99.90;;;;;;5051596;28;20023;-48
2022/02/04 18:54:44;;;;;;;;;;;6.60;99.90;;;;;;5049710;28;19968;-48
2022/02/04 18:57:17;;;;;;;;;;;6.50;99.90;;;;;;5051484;28;20020;-48
2022/02/04 18:59:53;;;;;;;;;;;6.50;99.90;;;;;;5051710;28;20306;-48
2022/02/04 19:02:22;;;;;;;;;;;6.50;99.90;;;;;;5052303;28;19924;-48
2022/02/04 19:04:54;;;;;;;;;;;6.50;99.90;;;;;;5039761;28;19948;-48
2022/02/04 19:07:31;;;;;;;;;;;6.60;99.90;;;;;;5032297;28;19925;-48
2022/02/04 19:09:57;;;;;;;;;;;6.50;99.90;;;;;;5033383;28;19974;-48
2022/02/04 19:12:32;;;;;;;;;;;6.50;99.90;;;;;;5054610;28;19951;-47
2022/02/04 19:15:19;;;;;;;;;;;6.40;99.90;;;;;;5032240;28;19925;-48
2022/02/04 19:17:50;;;;;;;;;;;6.50;99.90;;;;;;5031825;28;19929;-48
2022/02/04 19:20:27;;;;;;;;;;;6.80;99.90;;;;;;5033832;28;19925;-47
2022/02/04 19:22:57;;;;;;;;;;;7.00;99.90;;;;;;5032382;28;20295;-48